sensor_id;sensor_type;location;lat;lon;timestamp;pressure;altitude;pressure_sealevel;temperature;humidity
72636;BME280;60679;48.888;15.544;2023-03-13T00:02:07;95821.34;;;5.57;64.50
72636;BME280;60679;48.888;15.544;2023-03-13T00:04:32;95811.47;;;5.58;64.52
72636;BME280;60679;48.888;15.544;2023-03-13T00:06:58;95817.66;;;5.71;64.31
72636;BME280;60679;48.888;15.544;2023-03-13T00:09:24;95813.31;;;5.64;64.60
72636;BME280;60679;48.888;15.544;2023-03-13T00:11:51;95823.00;;;5.58;64.52
72636;BME280;60679;48.888;15.544;2023-03-13T00:14:17;95814.13;;;5.58;64.89
72636;BME280;60679;48.888;15.544;2023-03-13T00:16:42;95809.59;;;5.65;64.81
72636;BME280;60679;48.888;15.544;2023-03-13T00:19:08;95807.31;;;5.62;64.59
72636;BME280;60679;48.888;15.544;2023-03-13T00:21:34;95803.63;;;5.63;64.92
72636;BME280;60679;48.888;15.544;2023-03-13T00:24:02;95800.75;;;5.71;65.17
72636;BME280;60679;48.888;15.544;2023-03-13T00:26:28;95800.53;;;5.66;64.87
72636;BME280;60679;48.888;15.544;2023-03-13T00:28:54;95801.75;;;5.57;64.87
72636;BME280;60679;48.888;15.544;2023-03-13T00:31:21;95791.88;;;5.57;65.11
72636;BME280;60679;48.888;15.544;2023-03-13T00:33:49;95795.56;;;5.56;65.28
72636;BME280;60679;48.888;15.544;2023-03-13T00:36:23;95786.31;;;5.59;64.99
72636;BME280;60679;48.888;15.544;2023-03-13T00:38:50;95792.53;;;5.72;64.99
72636;BME280;60679;48.888;15.544;2023-03-13T00:41:19;95798.50;;;5.74;65.49
72636;BME280;60679;48.888;15.544;2023-03-13T00:43:46;95792.91;;;5.76;65.11
72636;BME280;60679;48.888;15.544;2023-03-13T00:46:13;95795.41;;;5.77;65.15
72636;BME280;60679;48.888;15.544;2023-03-13T00:48:39;95782.41;;;5.74;65.26
72636;BME280;60679;48.888;15.544;2023-03-13T00:51:06;95785.94;;;5.75;65.13
72636;BME280;60679;48.888;15.544;2023-03-13T00:53:32;95784.25;;;5.67;65.22
72636;BME280;60679;48.888;15.544;2023-03-13T00:58:26;95802.97;;;5.48;65.49
72636;BME280;60679;48.888;15.544;2023-03-13T01:00:52;95793.50;;;5.39;65.66
72636;BME280;60679;48.888;15.544;2023-03-13T01:03:19;95790.38;;;5.29;65.69
72636;BME280;60679;48.888;15.544;2023-03-13T01:05:44;95787.91;;;5.34;65.75
72636;BME280;60679;48.888;15.544;2023-03-13T01:08:10;95789.78;;;5.33;65.85
72636;BME280;60679;48.888;15.544;2023-03-13T01:10:35;95788.75;;;5.34;65.73
72636;BME280;60679;48.888;15.544;2023-03-13T01:13:01;95787.72;;;5.35;65.71
72636;BME280;60679;48.888;15.544;2023-03-13T01:15:29;95776.81;;;5.30;65.83
72636;BME280;60679;48.888;15.544;2023-03-13T01:17:55;95766.13;;;5.30;65.87
72636;BME280;60679;48.888;15.544;2023-03-13T01:20:20;95772.25;;;5.31;66.08
72636;BME280;60679;48.888;15.544;2023-03-13T01:22:46;95766.72;;;5.32;66.10
72636;BME280;60679;48.888;15.544;2023-03-13T01:25:11;95776.41;;;5.40;65.85
72636;BME280;60679;48.888;15.544;2023-03-13T01:27:37;95769.19;;;5.40;65.75
72636;BME280;60679;48.888;15.544;2023-03-13T01:30:03;95768.38;;;5.40;66.04
72636;BME280;60679;48.888;15.544;2023-03-13T01:32:28;95761.16;;;5.40;66.16
72636;BME280;60679;48.888;15.544;2023-03-13T01:34:57;95758.91;;;5.37;66.25
72636;BME280;60679;48.888;15.544;2023-03-13T01:37:22;95760.97;;;5.35;66.23
72636;BME280;60679;48.888;15.544;2023-03-13T01:39:47;95761.78;;;5.36;66.20
72636;BME280;60679;48.888;15.544;2023-03-13T01:42:13;95766.09;;;5.37;66.02
72636;BME280;60679;48.888;15.544;2023-03-13T01:44:50;95765.69;;;5.40;66.31
72636;BME280;60679;48.888;15.544;2023-03-13T01:47:16;95769.41;;;5.45;66.43
72636;BME280;60679;48.888;15.544;2023-03-13T01:49:42;95760.13;;;5.48;66.33
72636;BME280;60679;48.888;15.544;2023-03-13T01:52:47;95768.81;;;5.50;66.15
72636;BME280;60679;48.888;15.544;2023-03-13T01:55:08;95769.22;;;5.47;66.34
72636;BME280;60679;48.888;15.544;2023-03-13T01:57:43;95766.13;;;5.43;66.47
72636;BME280;60679;48.888;15.544;2023-03-13T02:00:17;95763.22;;;5.45;66.56
72636;BME280;60679;48.888;15.544;2023-03-13T02:02:49;95768.56;;;5.45;66.68
72636;BME280;60679;48.888;15.544;2023-03-13T02:05:19;95773.94;;;5.45;66.66
72636;BME280;60679;48.888;15.544;2023-03-13T02:08:12;95771.69;;;5.48;66.82
72636;BME280;60679;48.888;15.544;2023-03-13T02:10:50;95775.41;;;5.47;66.76
72636;BME280;60679;48.888;15.544;2023-03-13T02:13:19;95758.69;;;5.45;66.67
72636;BME280;60679;48.888;15.544;2023-03-13T02:15:46;95767.56;;;5.46;66.84
72636;BME280;60679;48.888;15.544;2023-03-13T02:18:12;95782.38;;;5.48;66.86
72636;BME280;60679;48.888;15.544;2023-03-13T02:20:38;95772.31;;;5.50;66.62
72636;BME280;60679;48.888;15.544;2023-03-13T02:25:58;95770.25;;;5.46;66.83
72636;BME280;60679;48.888;15.544;2023-03-13T02:28:29;95760.75;;;5.43;67.13
72636;BME280;60679;48.888;15.544;2023-03-13T02:30:59;95768.00;;;5.49;67.11
72636;BME280;60679;48.888;15.544;2023-03-13T02:33:27;95766.31;;;5.48;67.26
72636;BME280;60679;48.888;15.544;2023-03-13T02:35:53;95767.56;;;5.46;67.00
72636;BME280;60679;48.888;15.544;2023-03-13T02:38:23;95749.44;;;5.48;67.33
72636;BME280;60679;48.888;15.544;2023-03-13T02:40:51;95752.53;;;5.51;67.05
72636;BME280;60679;48.888;15.544;2023-03-13T02:43:23;95754.59;;;5.49;67.06
72636;BME280;60679;48.888;15.544;2023-03-13T02:46:16;95754.38;;;5.51;67.27
72636;BME280;60679;48.888;15.544;2023-03-13T02:48:52;95757.69;;;5.53;67.21
72636;BME280;60679;48.888;15.544;2023-03-13T02:51:39;95762.66;;;5.56;67.31
72636;BME280;60679;48.888;15.544;2023-03-13T02:54:10;95763.06;;;5.53;67.34
72636;BME280;60679;48.888;15.544;2023-03-13T02:56:39;95766.13;;;5.56;67.39
72636;BME280;60679;48.888;15.544;2023-03-13T02:59:05;95756.03;;;5.45;67.24
72636;BME280;60679;48.888;15.544;2023-03-13T03:01:32;95760.75;;;5.37;67.44
72636;BME280;60679;48.888;15.544;2023-03-13T03:03:57;95763.66;;;5.35;67.56
72636;BME280;60679;48.888;15.544;2023-03-13T03:06:23;95771.44;;;5.37;67.46
72636;BME280;60679;48.888;15.544;2023-03-13T03:08:48;95770.84;;;5.35;67.49
72636;BME280;60679;48.888;15.544;2023-03-13T03:11:14;95775.56;;;5.39;67.62
72636;BME280;60679;48.888;15.544;2023-03-13T03:13:40;95775.59;;;5.46;67.79
72636;BME280;60679;48.888;15.544;2023-03-13T03:16:09;95777.06;;;5.55;67.80
72636;BME280;60679;48.888;15.544;2023-03-13T03:18:36;95785.09;;;5.61;67.58
72636;BME280;60679;48.888;15.544;2023-03-13T03:21:03;95777.88;;;5.55;67.55
72636;BME280;60679;48.888;15.544;2023-03-13T03:23:31;95772.72;;;5.47;67.61
72636;BME280;60679;48.888;15.544;2023-03-13T03:25:58;95782.41;;;5.42;67.57
72636;BME280;60679;48.888;15.544;2023-03-13T03:28:23;95786.28;;;5.33;67.79
72636;BME280;60679;48.888;15.544;2023-03-13T03:30:49;95795.31;;;5.25;68.10
72636;BME280;60679;48.888;15.544;2023-03-13T03:33:15;95798.00;;;5.18;67.87
72636;BME280;60679;48.888;15.544;2023-03-13T03:35:40;95806.81;;;5.12;68.02
72636;BME280;60679;48.888;15.544;2023-03-13T03:38:06;95802.28;;;5.06;68.09
72636;BME280;60679;48.888;15.544;2023-03-13T03:40:31;95805.34;;;5.03;68.27
72636;BME280;60679;48.888;15.544;2023-03-13T03:42:57;95795.84;;;4.94;68.22
72636;BME280;60679;48.888;15.544;2023-03-13T03:45:23;95796.25;;;4.91;68.35
72636;BME280;60679;48.888;15.544;2023-03-13T03:47:48;95792.75;;;4.91;68.34
72636;BME280;60679;48.888;15.544;2023-03-13T03:50:14;95797.28;;;4.97;68.34
72636;BME280;60679;48.888;15.544;2023-03-13T03:52:39;95792.16;;;4.95;68.43
72636;BME280;60679;48.888;15.544;2023-03-13T03:55:05;95800.78;;;4.97;68.44
72636;BME280;60679;48.888;15.544;2023-03-13T03:57:30;95794.22;;;4.93;68.33
72636;BME280;60679;48.888;15.544;2023-03-13T03:59:56;95792.75;;;4.91;68.53
72636;BME280;60679;48.888;15.544;2023-03-13T04:02:21;95781.41;;;4.89;68.39
72636;BME280;60679;48.888;15.544;2023-03-13T04:04:46;95787.78;;;4.81;68.46
72636;BME280;60679;48.888;15.544;2023-03-13T04:07:12;95787.13;;;4.73;68.61
72636;BME280;60679;48.888;15.544;2023-03-13T04:09:37;95782.75;;;4.58;68.79
72636;BME280;60679;48.888;15.544;2023-03-13T04:12:03;95783.53;;;4.52;69.00
72636;BME280;60679;48.888;15.544;2023-03-13T04:14:28;95787.88;;;4.53;68.67
72636;BME280;60679;48.888;15.544;2023-03-13T04:16:54;95781.91;;;4.58;68.82
72636;BME280;60679;48.888;15.544;2023-03-13T04:19:19;95776.94;;;4.48;68.73
72636;BME280;60679;48.888;15.544;2023-03-13T04:21:45;95779.13;;;4.38;68.74
72636;BME280;60679;48.888;15.544;2023-03-13T04:24:10;95779.75;;;4.34;69.02
72636;BME280;60679;48.888;15.544;2023-03-13T04:26:36;95773.56;;;4.33;68.98
72636;BME280;60679;48.888;15.544;2023-03-13T04:29:01;95779.31;;;4.30;69.06
72636;BME280;60679;48.888;15.544;2023-03-13T04:31:27;95777.03;;;4.27;69.03
72636;BME280;60679;48.888;15.544;2023-03-13T04:33:52;95784.25;;;4.33;69.37
72636;BME280;60679;48.888;15.544;2023-03-13T04:36:17;95776.84;;;4.35;68.90
72636;BME280;60679;48.888;15.544;2023-03-13T04:38:43;95777.09;;;4.40;68.83
72636;BME280;60679;48.888;15.544;2023-03-13T04:41:08;95780.59;;;4.41;69.13
72636;BME280;60679;48.888;15.544;2023-03-13T04:43:34;95791.53;;;4.46;69.15
72636;BME280;60679;48.888;15.544;2023-03-13T04:45:59;95776.13;;;4.54;69.21
72636;BME280;60679;48.888;15.544;2023-03-13T04:48:25;95784.63;;;4.64;69.29
72636;BME280;60679;48.888;15.544;2023-03-13T04:50:50;95791.47;;;4.74;69.37
72636;BME280;60679;48.888;15.544;2023-03-13T04:53:16;95783.84;;;4.71;69.21
72636;BME280;60679;48.888;15.544;2023-03-13T04:55:42;95786.50;;;4.71;69.22
72636;BME280;60679;48.888;15.544;2023-03-13T04:58:08;95780.94;;;4.65;69.16
72636;BME280;60679;48.888;15.544;2023-03-13T05:00:33;95764.66;;;4.60;69.29
72636;BME280;60679;48.888;15.544;2023-03-13T05:02:59;95766.53;;;4.66;69.50
72636;BME280;60679;48.888;15.544;2023-03-13T05:05:24;95771.88;;;4.66;69.34
72636;BME280;60679;48.888;15.544;2023-03-13T05:07:49;95763.19;;;4.58;69.33
72636;BME280;60679;48.888;15.544;2023-03-13T05:10:15;95755.38;;;4.56;69.41
72636;BME280;60679;48.888;15.544;2023-03-13T05:12:41;95751.06;;;4.55;69.27
72636;BME280;60679;48.888;15.544;2023-03-13T05:15:06;95753.13;;;4.53;69.38
72636;BME280;60679;48.888;15.544;2023-03-13T05:17:32;95766.09;;;4.56;69.37
72636;BME280;60679;48.888;15.544;2023-03-13T05:19:58;95766.91;;;4.57;69.40
72636;BME280;60679;48.888;15.544;2023-03-13T05:22:23;95762.41;;;4.64;69.58
72636;BME280;60679;48.888;15.544;2023-03-13T05:24:49;95756.69;;;4.74;69.36
72636;BME280;60679;48.888;15.544;2023-03-13T05:27:14;95753.81;;;4.75;69.51
72636;BME280;60679;48.888;15.544;2023-03-13T05:29:40;95751.59;;;4.85;69.34
72636;BME280;60679;48.888;15.544;2023-03-13T05:32:05;95748.31;;;4.90;69.24
72636;BME280;60679;48.888;15.544;2023-03-13T05:34:31;95752.63;;;4.97;69.31
72636;BME280;60679;48.888;15.544;2023-03-13T05:36:56;95752.47;;;4.99;69.09
72636;BME280;60679;48.888;15.544;2023-03-13T05:39:22;95751.00;;;5.03;68.96
72636;BME280;60679;48.888;15.544;2023-03-13T05:41:47;95753.69;;;5.03;69.17
72636;BME280;60679;48.888;15.544;2023-03-13T05:44:13;95748.97;;;5.05;69.22
72636;BME280;60679;48.888;15.544;2023-03-13T05:46:38;95736.63;;;5.10;69.05
72636;BME280;60679;48.888;15.544;2023-03-13T05:49:03;95729.84;;;5.21;68.92
72636;BME280;60679;48.888;15.544;2023-03-13T05:51:29;95731.94;;;5.32;68.92
72636;BME280;60679;48.888;15.544;2023-03-13T05:53:54;95740.38;;;5.42;68.72
72636;BME280;60679;48.888;15.544;2023-03-13T05:56:20;95732.56;;;5.47;68.72
72636;BME280;60679;48.888;15.544;2023-03-13T05:58:45;95727.59;;;5.51;68.78
72636;BME280;60679;48.888;15.544;2023-03-13T06:01:12;95729.66;;;5.49;68.73
72636;BME280;60679;48.888;15.544;2023-03-13T06:03:38;95731.53;;;5.55;68.63
72636;BME280;60679;48.888;15.544;2023-03-13T06:06:04;95720.81;;;5.55;68.44
72636;BME280;60679;48.888;15.544;2023-03-13T06:08:32;95719.97;;;5.67;68.22
72636;BME280;60679;48.888;15.544;2023-03-13T06:10:58;95729.25;;;5.78;68.10
72636;BME280;60679;48.888;15.544;2023-03-13T06:13:24;95723.72;;;5.93;67.95
72636;BME280;60679;48.888;15.544;2023-03-13T06:15:54;95724.72;;;6.05;67.67
72636;BME280;60679;48.888;15.544;2023-03-13T06:18:21;95720.16;;;6.18;67.66
72636;BME280;60679;48.888;15.544;2023-03-13T06:20:48;95717.25;;;6.26;67.58
72636;BME280;60679;48.888;15.544;2023-03-13T06:23:14;95724.25;;;6.34;67.32
72636;BME280;60679;48.888;15.544;2023-03-13T06:25:40;95710.38;;;6.44;67.58
72636;BME280;60679;48.888;15.544;2023-03-13T06:28:05;95705.19;;;6.55;67.40
72636;BME280;60679;48.888;15.544;2023-03-13T06:30:31;95709.84;;;6.73;67.22
72636;BME280;60679;48.888;15.544;2023-03-13T06:32:57;95705.81;;;6.95;66.77
72636;BME280;60679;48.888;15.544;2023-03-13T06:35:22;95705.88;;;7.20;66.58
72636;BME280;60679;48.888;15.544;2023-03-13T06:37:48;95699.72;;;7.44;66.43
72636;BME280;60679;48.888;15.544;2023-03-13T06:40:13;95706.19;;;7.61;66.04
72636;BME280;60679;48.888;15.544;2023-03-13T06:42:38;95695.34;;;7.74;65.79
72636;BME280;60679;48.888;15.544;2023-03-13T06:45:04;95696.03;;;7.88;65.81
72636;BME280;60679;48.888;15.544;2023-03-13T06:47:32;95701.34;;;7.94;65.89
72636;BME280;60679;48.888;15.544;2023-03-13T06:49:58;95694.84;;;8.02;65.73
72636;BME280;60679;48.888;15.544;2023-03-13T06:52:23;95691.38;;;8.01;65.76
72636;BME280;60679;48.888;15.544;2023-03-13T06:54:49;95681.28;;;7.97;65.72
72636;BME280;60679;48.888;15.544;2023-03-13T06:57:15;95677.16;;;7.94;66.11
72636;BME280;60679;48.888;15.544;2023-03-13T06:59:40;95682.47;;;8.01;65.92
72636;BME280;60679;48.888;15.544;2023-03-13T07:02:08;95685.47;;;8.11;65.59
72636;BME280;60679;48.888;15.544;2023-03-13T07:04:35;95691.44;;;8.13;65.64
72636;BME280;60679;48.888;15.544;2023-03-13T07:07:00;95679.50;;;8.09;65.93
72636;BME280;60679;48.888;15.544;2023-03-13T07:09:26;95684.00;;;8.15;65.75
72636;BME280;60679;48.888;15.544;2023-03-13T07:11:52;95685.03;;;8.14;66.04
72636;BME280;60679;48.888;15.544;2023-03-13T07:14:17;95692.66;;;8.17;66.04
72636;BME280;60679;48.888;15.544;2023-03-13T07:16:44;95690.69;;;8.24;65.65
72636;BME280;60679;48.888;15.544;2023-03-13T07:19:10;95680.28;;;8.34;65.39
72636;BME280;60679;48.888;15.544;2023-03-13T07:21:35;95674.09;;;8.52;65.33
72636;BME280;60679;48.888;15.544;2023-03-13T07:24:01;95675.06;;;8.57;65.21
72636;BME280;60679;48.888;15.544;2023-03-13T07:26:26;95687.81;;;8.62;65.23
72636;BME280;60679;48.888;15.544;2023-03-13T07:28:52;95678.91;;;8.61;65.17
72636;BME280;60679;48.888;15.544;2023-03-13T07:31:20;95680.63;;;8.74;65.26
72636;BME280;60679;48.888;15.544;2023-03-13T07:33:46;95666.41;;;8.85;64.89
72636;BME280;60679;48.888;15.544;2023-03-13T07:36:13;95660.00;;;8.98;64.95
72636;BME280;60679;48.888;15.544;2023-03-13T07:38:39;95660.56;;;9.18;64.61
72636;BME280;60679;48.888;15.544;2023-03-13T07:41:05;95653.44;;;9.35;64.29
72636;BME280;60679;48.888;15.544;2023-03-13T07:43:31;95662.28;;;9.54;64.12
72636;BME280;60679;48.888;15.544;2023-03-13T07:46:02;95662.19;;;9.72;63.69
72636;BME280;60679;48.888;15.544;2023-03-13T07:48:30;95656.69;;;9.90;63.20
72636;BME280;60679;48.888;15.544;2023-03-13T07:50:56;95658.69;;;10.18;62.90
72636;BME280;60679;48.888;15.544;2023-03-13T07:53:22;95666.63;;;10.48;62.54
72636;BME280;60679;48.888;15.544;2023-03-13T07:58:21;95667.22;;;10.89;61.90
72636;BME280;60679;48.888;15.544;2023-03-13T08:00:47;95671.09;;;10.93;61.85
72636;BME280;60679;48.888;15.544;2023-03-13T08:03:13;95655.25;;;10.85;61.93
72636;BME280;60679;48.888;15.544;2023-03-13T08:05:39;95654.16;;;10.98;61.79
72636;BME280;60679;48.888;15.544;2023-03-13T08:08:05;95647.34;;;10.95;61.96
72636;BME280;60679;48.888;15.544;2023-03-13T08:10:30;95649.00;;;10.96;61.83
72636;BME280;60679;48.888;15.544;2023-03-13T08:12:56;95660.38;;;10.98;62.06
72636;BME280;60679;48.888;15.544;2023-03-13T08:15:21;95659.06;;;11.01;61.86
72636;BME280;60679;48.888;15.544;2023-03-13T08:17:51;95644.16;;;11.27;61.33
72636;BME280;60679;48.888;15.544;2023-03-13T08:20:17;95639.41;;;11.79;60.39
72636;BME280;60679;48.888;15.544;2023-03-13T08:22:44;95635.22;;;12.26;59.87
72636;BME280;60679;48.888;15.544;2023-03-13T08:25:11;95634.75;;;12.51;59.42
72636;BME280;60679;48.888;15.544;2023-03-13T08:27:36;95636.00;;;12.43;59.38
72636;BME280;60679;48.888;15.544;2023-03-13T08:30:03;95637.16;;;12.31;59.74
72636;BME280;60679;48.888;15.544;2023-03-13T08:32:28;95629.25;;;12.24;60.14
72636;BME280;60679;48.888;15.544;2023-03-13T08:34:56;95624.41;;;12.26;60.18
72636;BME280;60679;48.888;15.544;2023-03-13T08:37:22;95613.00;;;12.24;60.17
72636;BME280;60679;48.888;15.544;2023-03-13T08:39:47;95615.34;;;11.99;60.66
72636;BME280;60679;48.888;15.544;2023-03-13T08:42:14;95613.94;;;11.63;61.32
72636;BME280;60679;48.888;15.544;2023-03-13T08:44:39;95632.63;;;11.48;61.60
72636;BME280;60679;48.888;15.544;2023-03-13T08:47:06;95630.66;;;11.60;61.44
72636;BME280;60679;48.888;15.544;2023-03-13T08:49:32;95640.84;;;11.86;60.57
72636;BME280;60679;48.888;15.544;2023-03-13T08:51:57;95629.41;;;12.18;59.77
72636;BME280;60679;48.888;15.544;2023-03-13T08:54:22;95626.13;;;12.54;59.47
72636;BME280;60679;48.888;15.544;2023-03-13T08:56:48;95604.09;;;12.67;59.45
72636;BME280;60679;48.888;15.544;2023-03-13T08:59:13;95622.97;;;12.62;59.65
72636;BME280;60679;48.888;15.544;2023-03-13T09:01:42;95613.78;;;12.63;59.55
72636;BME280;60679;48.888;15.544;2023-03-13T09:04:08;95592.63;;;12.38;59.96
72636;BME280;60679;48.888;15.544;2023-03-13T09:06:35;95567.16;;;12.39;59.86
72636;BME280;60679;48.888;15.544;2023-03-13T09:09:01;95581.78;;;12.60;59.29
72636;BME280;60679;48.888;15.544;2023-03-13T09:11:27;95613.16;;;12.78;58.85
72636;BME280;60679;48.888;15.544;2023-03-13T09:13:54;95622.53;;;12.70;58.85
72636;BME280;60679;48.888;15.544;2023-03-13T09:16:22;95613.50;;;12.64;59.09
72636;BME280;60679;48.888;15.544;2023-03-13T09:18:52;95606.44;;;12.85;58.76
72636;BME280;60679;48.888;15.544;2023-03-13T09:21:26;95602.31;;;13.04;58.65
72636;BME280;60679;48.888;15.544;2023-03-13T09:23:52;95597.03;;;13.14;58.18
72636;BME280;60679;48.888;15.544;2023-03-13T09:26:19;95589.97;;;13.13;58.36
72636;BME280;60679;48.888;15.544;2023-03-13T09:28:45;95580.97;;;13.35;58.30
72636;BME280;60679;48.888;15.544;2023-03-13T09:31:23;95576.22;;;13.20;58.43
72636;BME280;60679;48.888;15.544;2023-03-13T09:33:49;95567.97;;;12.83;59.04
72636;BME280;60679;48.888;15.544;2023-03-13T09:36:16;95565.91;;;12.68;59.41
72636;BME280;60679;48.888;15.544;2023-03-13T09:38:44;95558.22;;;12.60;59.40
72636;BME280;60679;48.888;15.544;2023-03-13T09:43:50;95553.31;;;12.14;59.76
72636;BME280;60679;48.888;15.544;2023-03-13T09:46:22;95553.34;;;11.97;60.33
72636;BME280;60679;48.888;15.544;2023-03-13T09:48:53;95546.16;;;11.86;60.37
72636;BME280;60679;48.888;15.544;2023-03-13T09:51:48;95553.78;;;11.89;60.66
72636;BME280;60679;48.888;15.544;2023-03-13T09:54:58;95557.25;;;11.85;60.64
72636;BME280;60679;48.888;15.544;2023-03-13T09:57:34;95549.47;;;11.72;60.76
72636;BME280;60679;48.888;15.544;2023-03-13T10:00:12;95556.25;;;11.74;60.83
72636;BME280;60679;48.888;15.544;2023-03-13T10:02:43;95543.16;;;11.49;60.76
72636;BME280;60679;48.888;15.544;2023-03-13T10:05:22;95542.13;;;11.34;61.26
72636;BME280;60679;48.888;15.544;2023-03-13T10:07:48;95543.50;;;11.36;61.23
72636;BME280;60679;48.888;15.544;2023-03-13T10:10:32;95527.34;;;11.58;60.93
72636;BME280;60679;48.888;15.544;2023-03-13T10:13:11;95525.72;;;11.74;60.71
72636;BME280;60679;48.888;15.544;2023-03-13T10:18:15;95512.06;;;11.69;61.06
72636;BME280;60679;48.888;15.544;2023-03-13T10:20:42;95499.28;;;11.42;61.61
72636;BME280;60679;48.888;15.544;2023-03-13T10:23:23;95509.34;;;11.30;61.87
72636;BME280;60679;48.888;15.544;2023-03-13T10:25:52;95500.59;;;11.23;61.93
72636;BME280;60679;48.888;15.544;2023-03-13T10:28:18;95500.69;;;11.28;61.65
72636;BME280;60679;48.888;15.544;2023-03-13T10:30:49;95493.47;;;11.34;61.86
72636;BME280;60679;48.888;15.544;2023-03-13T10:33:26;95492.06;;;11.48;61.58
72636;BME280;60679;48.888;15.544;2023-03-13T10:38:27;95487.47;;;12.08;60.92
72636;BME280;60679;48.888;15.544;2023-03-13T10:40:58;95480.06;;;12.74;60.02
72636;BME280;60679;48.888;15.544;2023-03-13T10:43:25;95476.78;;;12.99;59.73
72636;BME280;60679;48.888;15.544;2023-03-13T10:45:51;95486.06;;;12.76;60.54
72636;BME280;60679;48.888;15.544;2023-03-13T10:48:20;95473.22;;;12.93;60.04
72636;BME280;60679;48.888;15.544;2023-03-13T10:50:48;95477.19;;;13.49;58.81
72636;BME280;60679;48.888;15.544;2023-03-13T10:55:46;95484.25;;;13.50;58.98
72636;BME280;60679;48.888;15.544;2023-03-13T10:58:27;95477.97;;;13.08;59.92
72636;BME280;60679;48.888;15.544;2023-03-13T11:01:19;95471.63;;;12.97;59.96
72636;BME280;60679;48.888;15.544;2023-03-13T11:03:47;95468.25;;;13.49;59.09
72636;BME280;60679;48.888;15.544;2023-03-13T11:06:28;95460.63;;;13.93;58.22
72636;BME280;60679;48.888;15.544;2023-03-13T11:09:14;95449.28;;;14.06;58.20
72636;BME280;60679;48.888;15.544;2023-03-13T11:11:55;95446.28;;;14.02;58.60
72636;BME280;60679;48.888;15.544;2023-03-13T11:14:25;95441.53;;;13.72;59.12
72636;BME280;60679;48.888;15.544;2023-03-13T11:16:54;95453.09;;;13.16;60.22
72636;BME280;60679;48.888;15.544;2023-03-13T11:25:02;95439.41;;;14.47;57.50
72636;BME280;60679;48.888;15.544;2023-03-13T11:27:42;95418.81;;;15.51;55.50
72636;BME280;60679;48.888;15.544;2023-03-13T11:36:24;95416.78;;;18.53;49.68
72636;BME280;60679;48.888;15.544;2023-03-13T11:41:57;95405.66;;;16.87;53.06
72636;BME280;60679;48.888;15.544;2023-03-13T11:47:26;95406.88;;;17.91;50.52
72636;BME280;60679;48.888;15.544;2023-03-13T12:00:59;95395.66;;;20.83;45.64
72636;BME280;60679;48.888;15.544;2023-03-13T12:06:01;95386.47;;;24.59;39.88
72636;BME280;60679;48.888;15.544;2023-03-13T12:08:36;95378.25;;;26.31;37.49
72636;BME280;60679;48.888;15.544;2023-03-13T12:11:21;95363.34;;;27.36;36.78
72636;BME280;60679;48.888;15.544;2023-03-13T12:13:53;95358.84;;;26.68;37.46
72636;BME280;60679;48.888;15.544;2023-03-13T12:16:24;95357.72;;;26.57;37.37
72636;BME280;60679;48.888;15.544;2023-03-13T12:18:51;95351.44;;;25.87;38.22
72636;BME280;60679;48.888;15.544;2023-03-13T12:21:29;95353.13;;;25.67;38.58
72636;BME280;60679;48.888;15.544;2023-03-13T12:24:12;95357.44;;;24.82;39.46
72636;BME280;60679;48.888;15.544;2023-03-13T12:26:43;95358.81;;;25.30;38.34
72636;BME280;60679;48.888;15.544;2023-03-13T12:34:52;95349.06;;;28.21;34.31
72636;BME280;60679;48.888;15.544;2023-03-13T12:37:32;95343.84;;;26.69;36.71
72636;BME280;60679;48.888;15.544;2023-03-13T12:40:13;95342.25;;;22.51;42.73
72636;BME280;60679;48.888;15.544;2023-03-13T12:43:10;95328.69;;;20.70;45.98
72636;BME280;60679;48.888;15.544;2023-03-13T12:48:39;95338.13;;;19.46;46.61
72636;BME280;60679;48.888;15.544;2023-03-13T12:59:43;95327.72;;;19.30;46.61
72636;BME280;60679;48.888;15.544;2023-03-13T13:02:26;95322.16;;;19.35;46.09
72636;BME280;60679;48.888;15.544;2023-03-13T13:04:53;95320.94;;;18.95;47.29
72636;BME280;60679;48.888;15.544;2023-03-13T13:07:34;95328.31;;;18.62;47.43
72636;BME280;60679;48.888;15.544;2023-03-13T13:10:12;95318.47;;;19.58;46.30
72636;BME280;60679;48.888;15.544;2023-03-13T13:12:43;95311.44;;;19.93;45.68
72636;BME280;60679;48.888;15.544;2023-03-13T13:15:22;95317.09;;;20.37;45.16
72636;BME280;60679;48.888;15.544;2023-03-13T13:17:56;95328.59;;;19.98;45.65
72636;BME280;60679;48.888;15.544;2023-03-13T13:20:30;95331.25;;;18.84;47.14
72636;BME280;60679;48.888;15.544;2023-03-13T13:23:19;95311.75;;;18.16;48.47
72636;BME280;60679;48.888;15.544;2023-03-13T13:25:44;95313.97;;;18.14;48.53
72636;BME280;60679;48.888;15.544;2023-03-13T13:28:22;95317.28;;;18.11;48.36
72636;BME280;60679;48.888;15.544;2023-03-13T13:30:52;95309.44;;;18.05;48.29
72636;BME280;60679;48.888;15.544;2023-03-13T13:35:44;95300.06;;;18.29;47.56
72636;BME280;60679;48.888;15.544;2023-03-13T13:43:30;95285.81;;;18.14;48.14
72636;BME280;60679;48.888;15.544;2023-03-13T13:46:42;95294.28;;;17.94;48.23
72636;BME280;60679;48.888;15.544;2023-03-13T13:51:30;95273.84;;;17.91;48.15
72636;BME280;60679;48.888;15.544;2023-03-13T13:54:01;95275.47;;;17.92;48.53
72636;BME280;60679;48.888;15.544;2023-03-13T14:01:27;95258.06;;;17.41;49.29
72636;BME280;60679;48.888;15.544;2023-03-13T14:06:44;95267.34;;;16.92;49.99
72636;BME280;60679;48.888;15.544;2023-03-13T14:11:57;95256.34;;;16.35;51.13
72636;BME280;60679;48.888;15.544;2023-03-13T14:14:23;95254.38;;;16.11;51.34
72636;BME280;60679;48.888;15.544;2023-03-13T14:16:51;95254.72;;;15.95;51.55
72636;BME280;60679;48.888;15.544;2023-03-13T14:21:49;95249.44;;;15.70;52.17
72636;BME280;60679;48.888;15.544;2023-03-13T14:24:17;95253.31;;;15.58;52.35
72636;BME280;60679;48.888;15.544;2023-03-13T14:26:43;95246.00;;;15.54;52.28
72636;BME280;60679;48.888;15.544;2023-03-13T14:29:15;95250.63;;;15.48;52.32
72636;BME280;60679;48.888;15.544;2023-03-13T14:31:49;95238.41;;;15.41;52.64
72636;BME280;60679;48.888;15.544;2023-03-13T14:34:16;95238.66;;;15.39;52.55